»·PEaware :: N380SP 04CA-KBUR

N380SP :: 04CA-KBUR

FLIGHT INFORMATION

Flight Status: Arrived
Operator: Privately registered:
United States
More flights under this callsign
Pilot: Kevin S. (26378)
Aircraft: CESSNA 172 SKYHAWK
(C172)
More flights by this aircraft type
Origin: 04CA Gray Butte Fld
United States
Destination: KBUR Bob Hope-Burbank
United States
More flights between these airports :: More routes between these airports
Route: KWJF
File this flight plan on PilotEdge
Remarks:
Altitude:
(Current/Filed)
6,500ft
Speed:
(Current/Filed)
110kts
Departed: 05-Nov-19 08:56 PM
Arrived: 05-Nov-19 10:09 PM
Distance/Time
Traveled:
40nm/1:13
Distance/Time
To Go:
Arrived

Flight Plot

Page will automatically refresh every two minutes.

Flight plan parsing failed; only flown route is shown


Map Options




Map Legend


Flown Route
Filed Route
Departure Airport
Arrival Airport
Navaid (VOR, NDB)
Fix

Horizontal Profiles

Position Reports

Time Latitude Longitude Heading Altitude Ground
Speed
05-Nov-19 20:48 34.562909 -117.676269 92 3031ft 0kts
05-Nov-19 20:49 34.562909 -117.676269 92 3031ft 0kts
05-Nov-19 20:50 34.562909 -117.676269 92 3031ft 0kts
05-Nov-19 20:51 34.562909 -117.676269 92 3031ft 0kts
05-Nov-19 20:52 34.562909 -117.676269 92 3031ft 0kts
05-Nov-19 20:53 34.563013 -117.671699 20 3036ft 23kts
05-Nov-19 20:54 34.566531 -117.672642 295 3026ft 4kts
05-Nov-19 20:55 34.566559 -117.674226 268 3024ft 46kts
05-Nov-19 20:56 34.568758 -117.702730 265 3523ft 95kts
05-Nov-19 20:57 34.568029 -117.735010 246 4231ft 96kts
05-Nov-19 20:58 34.561517 -117.766166 220 4806ft 95kts
05-Nov-19 20:59 34.540215 -117.784450 200 5238ft 94kts
05-Nov-19 21:00 34.535410 -117.818409 266 5413ft 108kts
05-Nov-19 21:01 34.534721 -117.854596 269 5545ft 108kts
05-Nov-19 21:02 34.533707 -117.890548 277 5686ft 109kts
05-Nov-19 21:03 34.544205 -117.924775 267 5772ft 110kts
05-Nov-19 21:04 34.530712 -117.955519 238 5865ft 105kts
05-Nov-19 21:05 34.528635 -117.991799 266 5949ft 108kts
05-Nov-19 21:06 34.531079 -118.027765 293 6018ft 108kts
05-Nov-19 21:07 34.524676 -118.057018 206 5863ft 99kts
05-Nov-19 21:08 34.512753 -118.086908 267 5687ft 107kts
05-Nov-19 21:09 34.535491 -118.105807 348 5523ft 102kts
05-Nov-19 21:10 34.563749 -118.111450 10 5298ft 101kts
05-Nov-19 21:11 34.591973 -118.109957 349 5099ft 105kts
05-Nov-19 21:12 34.620409 -118.119466 348 5205ft 104kts
05-Nov-19 21:13 34.648865 -118.124116 24 5226ft 102kts
05-Nov-19 21:14 34.654173 -118.096870 91 4886ft 88kts
05-Nov-19 21:15 34.652665 -118.069102 103 4166ft 69kts
05-Nov-19 21:16 34.636826 -118.059464 222 2660ft 88kts
05-Nov-19 21:17 34.631529 -118.068878 224 2498ft 0kts
05-Nov-19 21:18 34.632391 -118.068697 23 2497ft 29kts
05-Nov-19 21:19 34.637008 -118.064863 254 2494ft 0kts
05-Nov-19 21:20 34.637008 -118.064863 254 2494ft 0kts
05-Nov-19 21:21 34.636974 -118.064976 244 2494ft 0kts
05-Nov-19 21:22 34.636974 -118.064976 244 2494ft 0kts
05-Nov-19 21:23 34.636974 -118.064976 244 2494ft 0kts
05-Nov-19 21:24 34.636974 -118.064976 244 2494ft 0kts
05-Nov-19 21:25 34.636974 -118.064976 243 2494ft 0kts
05-Nov-19 21:26 34.636974 -118.064976 243 2494ft 0kts
05-Nov-19 21:27 34.636857 -118.065186 228 2494ft 0kts
05-Nov-19 21:28 34.636813 -118.065243 226 2494ft 6kts
05-Nov-19 21:29 34.632912 -118.073929 265 2498ft 20kts
05-Nov-19 21:30 34.635868 -118.095708 355 3068ft 81kts
05-Nov-19 21:31 34.642669 -118.068339 110 3815ft 87kts
05-Nov-19 21:32 34.630634 -118.081557 266 4383ft 97kts
05-Nov-19 21:33 34.640198 -118.109931 348 4556ft 105kts
05-Nov-19 21:34 34.667811 -118.116143 345 4738ft 103kts
05-Nov-19 21:35 34.694217 -118.130366 342 4823ft 105kts
05-Nov-19 21:36 34.720314 -118.136255 2 4623ft 101kts
05-Nov-19 21:37 34.750059 -118.139438 342 4204ft 104kts
05-Nov-19 21:38 34.754122 -118.166484 257 3773ft 91kts
05-Nov-19 21:39 34.747314 -118.194477 230 2867ft 88kts
05-Nov-19 21:40 34.740296 -118.221364 254 2434ft 92kts
05-Nov-19 21:41 34.738506 -118.249625 334 3179ft 93kts
05-Nov-19 21:42 34.749061 -118.227127 83 3474ft 96kts
05-Nov-19 21:43 34.750248 -118.195423 126 2880ft 87kts
05-Nov-19 21:44 34.742250 -118.214339 254 2346ft 48kts
05-Nov-19 21:45 34.734692 -118.240303 243 2935ft 92kts
05-Nov-19 21:46 34.720911 -118.264364 199 3808ft 92kts
05-Nov-19 21:47 34.694530 -118.269163 149 4547ft 100kts
05-Nov-19 21:48 34.667421 -118.265835 192 5328ft 103kts
05-Nov-19 21:49 34.639979 -118.272091 157 6057ft 99kts
05-Nov-19 21:50 34.615153 -118.257946 128 6727ft 96kts
05-Nov-19 21:51 34.595673 -118.234958 124 7357ft 98kts
05-Nov-19 21:52 34.567138 -118.233477 190 7828ft 112kts
05-Nov-19 21:53 34.536456 -118.243141 194 7815ft 113kts
05-Nov-19 21:54 34.509928 -118.263082 232 7684ft 112kts
05-Nov-19 21:55 34.484510 -118.277985 170 7858ft 101kts
05-Nov-19 21:56 34.455864 -118.276399 175 7747ft 103kts
05-Nov-19 21:57 34.427062 -118.285899 206 7554ft 115kts
05-Nov-19 21:58 34.396476 -118.287309 167 7486ft 109kts
05-Nov-19 21:59 34.366610 -118.295706 201 7506ft 112kts
05-Nov-19 22:00 34.336859 -118.305450 188 7268ft 109kts
05-Nov-19 22:01 34.310394 -118.320706 260 6445ft 114kts
05-Nov-19 22:02 34.315959 -118.353496 288 5636ft 100kts
05-Nov-19 22:03 34.307669 -118.375474 190 4942ft 105kts
05-Nov-19 22:04 34.283665 -118.376028 175 3901ft 127kts
05-Nov-19 22:05 34.258992 -118.373575 171 2577ft 124kts
05-Nov-19 22:06 34.232170 -118.366912 171 1440ft 91kts
05-Nov-19 22:07 34.212891 -118.360719 172 843ft 87kts
05-Nov-19 22:08 34.202772 -118.358393 249 730ft 9kts

Navigation Log

Ident Type
Flight plan parsing failed, navigation log unavailable